KCCA

Clinton Municipal Airport

Clinton, Arkansas, USA
METAR KCCA 180655Z AUTO 00000KT 1/4SM FG OVC002 00/00 A3028 RMK AO2
Observed Flight Rules
Feb-18 @ 06:55 UTC (18 minutes ago) Instrument Flight Rules
Wind Visibility Clouds Conditions
Calm 1/4 miles
  • Overcast at 200' AGL
  • Fog
Temperatures Readings
Current 0°C / 32°F
Dewpoint 0°C / 32°F
Humidity 100%
Altimeter 30.28" Hg
Pressure 1025 hPa
Elevation 157
METAR KCCA 180655Z AUTO 00000KT 1/4SM FG OVC002 00/00 A3028 RMK AO2
Observed Flight Rules
Feb-18 @ 06:55 UTC
(18 minutes ago)
LIFR
Wind Visibility
Calm 1/4 miles
Clouds
  • Overcast at 200' AGL
Conditions
  • Fog
Temperature Dewpoint
0°C / 32°F 0°C / 32°F
Humidity Altimeter Pressure
100% 30.28" Hg 1025 hPa